Ana Sayfa
METAR-TAF:

METAR-TAF

Havaalanları :

Brownwood, Teksas, Amerika Birleşik Devletleri

Enlem: 31-48N, Boylam: 098-57W, yükseklik: 422 m

Güncel hava durumu gözlemi

Rapor saat 11:15 UTC de 26 dakika önce yapıldı.
Rüzgar güney/güneydoğudan 7 kt
Sıcaklık 23°C
Nem 94%
Basınç 1012 hPa
Görüş mesafesi: 14.5 km
4300 ft yükseklikte az bulutlu

METAR: KBWD 161115Z AUTO 15007KT 9SM FEW043 23/22 A2989 RMK AO1

Saat: 06:41 (11:41 UTC)


TAF: eksik

4.000'den fazla havaalanı için hava durumu gözlemleri ve tahminleri (METAR ve TAF raporları).

Kullanılabilir istasyonlar harita üzerinde sarı ve kırmızı noktalarla gösterilir.

İstasyonun adını görmek için fareyi noktanın üzerinde gezdirin.

Sonrasında hava gözlem ve tahminlerini görmek için tıklayın.

Haritayı değiştirmek için: yaklaştırmak için siyah artı işaretli yeşil düğmeye ve uzaklaştırmak için de eksi işaretli düğmeye hızla tıklayın; bitişik haritalar için yeşil okları kullanın.


METAR-TAF: